createdAt,value
2023-04-28T06:59:21.209Z,101583.34
2023-04-28T07:04:23.172Z,101583.19
2023-04-28T07:09:24.983Z,101588.34
2023-04-28T07:14:26.470Z,101573.97
2023-04-28T07:19:28.109Z,101569.50
2023-04-28T07:24:29.706Z,101568.03
2023-04-28T07:29:31.214Z,101565.72
2023-04-28T07:34:32.618Z,101566.81
2023-04-28T07:39:34.551Z,101569.31
2023-04-28T07:44:36.053Z,101571.03
2023-04-28T07:49:37.561Z,101560.13
2023-04-28T07:54:39.090Z,101559.03
2023-04-28T07:59:40.514Z,101547.72
2023-04-28T08:04:42.130Z,101547.31
2023-04-28T08:09:43.758Z,101536.56
2023-04-28T08:14:45.150Z,101527.31
2023-04-28T08:19:46.528Z,101526.88
2023-04-28T08:24:47.973Z,101524.44
2023-04-28T08:29:49.379Z,101516.56
2023-04-28T08:34:50.799Z,101521.22
2023-04-28T08:39:52.216Z,101512.75
2023-04-28T08:44:55.708Z,101514.47
2023-04-28T08:50:02.334Z,101505.88
2023-04-28T08:55:09.043Z,101511.22
2023-04-28T09:00:11.339Z,101504.69
2023-04-28T09:05:14.175Z,101504.56
2023-04-28T09:10:23.545Z,101501.94
2023-04-28T09:15:36.060Z,101494.72
2023-04-28T09:20:37.498Z,101485.78
2023-04-28T09:25:38.898Z,101488.47
2023-04-28T09:30:40.342Z,101479.75
2023-04-28T09:35:43.507Z,101468.88
2023-04-28T09:40:59.542Z,101475.47
2023-04-28T09:46:05.529Z,101461.44
2023-04-28T09:51:07.836Z,101447.13
2023-04-28T09:56:09.866Z,101450.13
2023-04-28T10:01:11.956Z,101441.66
2023-04-28T10:06:13.374Z,101430.44
2023-04-28T10:11:15.957Z,101421.81
2023-04-28T10:16:17.442Z,101432.19
2023-04-28T10:21:21.847Z,101421.41
2023-04-28T10:26:52.874Z,101411.44
2023-04-28T10:32:16.488Z,101405.78
2023-04-28T10:37:18.121Z,101402.38
2023-04-28T10:42:56.743Z,101396.31
2023-04-28T10:48:01.320Z,101391.03
2023-04-28T10:53:02.878Z,101393.28
2023-04-28T10:58:16.325Z,101386.13
2023-04-28T11:03:48.734Z,101380.72
2023-04-28T11:08:50.314Z,101371.63
2023-04-28T11:13:53.559Z,101372.41
2023-04-28T11:19:02.090Z,101370.72
2023-04-28T11:24:09.272Z,101363.13
2023-04-28T11:29:12.149Z,101358.56
2023-04-28T11:34:19.854Z,101357.38
2023-04-28T11:39:32.448Z,101359.59
2023-04-28T11:44:33.853Z,101350.13
2023-04-28T11:49:43.837Z,101342.03
2023-04-28T11:54:45.506Z,101344.34
2023-04-28T11:59:47.400Z,101338.72
2023-04-28T12:04:49.265Z,101337.69
2023-04-28T12:10:11.070Z,101321.81
2023-04-28T12:15:12.555Z,101310.13
2023-04-28T12:20:38.319Z,101317.06
2023-04-28T12:25:44.127Z,101318.63
2023-04-28T12:30:45.900Z,101309.81
2023-04-28T12:35:47.352Z,101307.88
2023-04-28T12:40:48.739Z,101302.97
2023-04-28T12:45:50.919Z,101309.34
2023-04-28T12:50:52.487Z,101304.25
2023-04-28T12:55:54.116Z,101298.41
2023-04-28T13:00:55.509Z,101287.09
2023-04-28T13:05:56.986Z,101287.59
2023-04-28T13:10:58.800Z,101275.56
2023-04-28T13:16:00.818Z,101265.91
2023-04-28T13:21:02.237Z,101261.19
2023-04-28T13:26:03.725Z,101252.34
2023-04-28T13:31:05.230Z,101250.91
2023-04-28T13:36:07.228Z,101244.03
2023-04-28T13:41:08.733Z,101243.56
2023-04-28T13:46:11.072Z,101236.50
2023-04-28T13:51:12.712Z,101240.28
2023-04-28T13:56:14.279Z,101238.13
2023-04-28T14:01:15.817Z,101228.69
2023-04-28T14:06:17.391Z,101223.22
2023-04-28T14:11:18.838Z,101216.44
2023-04-28T14:16:20.492Z,101219.41
2023-04-28T14:21:21.940Z,101218.66
2023-04-28T14:26:23.386Z,101214.22
2023-04-28T14:31:24.828Z,101214.75
2023-04-28T14:36:26.343Z,101210.53
2023-04-28T14:41:27.761Z,101199.53
2023-04-28T14:46:29.322Z,101191.44
2023-04-28T14:51:30.784Z,101193.84
2023-04-28T14:56:33.801Z,101194.81
2023-04-28T15:01:35.480Z,101185.81
2023-04-28T15:06:36.950Z,101173.66
2023-04-28T15:11:38.367Z,101162.06
2023-04-28T15:16:40.209Z,101152.63
2023-04-28T15:21:41.697Z,101152.97
2023-04-28T15:26:43.147Z,101144.66
2023-04-28T15:31:44.617Z,101132.97
2023-04-28T15:36:46.082Z,101131.59
2023-04-28T15:41:47.512Z,101117.84
2023-04-28T15:46:49.011Z,101108.22
2023-04-28T15:51:50.505Z,101112.31
2023-04-28T15:56:51.946Z,101113.03
2023-04-28T16:01:53.369Z,101112.09
2023-04-28T16:06:55.302Z,101109.59
2023-04-28T16:11:57.422Z,101099.69
2023-04-28T16:16:59.444Z,101109.31
2023-04-28T16:22:01.092Z,101119.38
2023-04-28T16:27:02.554Z,101123.56
2023-04-28T16:32:05.245Z,101132.25
2023-04-28T16:37:07.084Z,101131.50
2023-04-28T16:42:08.833Z,101141.22
2023-04-28T16:47:10.258Z,101143.72
2023-04-28T16:52:11.722Z,101119.91
2023-04-28T16:57:13.175Z,101139.13
2023-04-28T17:02:14.655Z,101130.69
2023-04-28T17:07:16.136Z,101123.56
2023-04-28T17:12:17.867Z,101116.88
2023-04-28T17:17:19.353Z,101111.88
2023-04-28T17:22:20.792Z,101114.88
2023-04-28T17:27:22.282Z,101119.13
2023-04-28T17:32:23.732Z,101122.88
2023-04-28T17:37:26.182Z,101130.53
2023-04-28T17:42:29.155Z,101126.53
2023-04-28T17:47:30.610Z,101131.78
2023-04-28T17:52:32.040Z,101138.38
2023-04-28T17:57:33.516Z,101137.50
2023-04-28T18:02:35.066Z,101128.59
2023-04-28T18:07:36.540Z,101127.56
2023-04-28T18:12:37.978Z,101130.06
2023-04-28T18:17:39.437Z,101121.31
2023-04-28T18:22:40.881Z,101124.44
2023-04-28T18:27:42.981Z,101121.06
2023-04-28T18:32:44.422Z,101116.13
2023-04-28T18:37:46.066Z,101120.28
2023-04-28T18:42:47.525Z,101129.88
2023-04-28T18:47:49.135Z,101121.13
2023-04-28T18:52:50.745Z,101129.31
2023-04-28T18:57:52.593Z,101132.66
2023-04-28T19:02:54.185Z,101133.09
2023-04-28T19:07:55.704Z,101132.19
2023-04-28T19:12:57.165Z,101140.94
2023-04-28T19:17:59.125Z,101158.72
2023-04-28T19:23:00.618Z,101170.78
2023-04-28T19:28:02.381Z,101168.75
2023-04-28T19:33:03.953Z,101173.91
2023-04-28T19:38:05.469Z,101170.31
2023-04-28T19:43:06.928Z,101174.22
2023-04-28T19:48:08.474Z,101161.47
2023-04-28T19:53:09.951Z,101161.78
2023-04-28T19:58:11.427Z,101173.13
2023-04-28T20:03:13.062Z,101177.53
2023-04-28T20:08:14.634Z,101182.75
2023-04-28T20:13:16.088Z,101182.03
2023-04-28T20:18:17.514Z,101180.47
2023-04-28T20:23:19.159Z,101180.75
2023-04-28T20:28:20.604Z,101180.16
2023-04-28T20:33:22.021Z,101185.44
2023-04-28T20:38:23.436Z,101189.06
2023-04-28T20:43:26.210Z,101187.41
2023-04-28T20:48:27.761Z,101189.31
2023-04-28T20:53:31.437Z,101180.78
2023-04-28T20:58:34.379Z,101187.91
2023-04-28T21:03:35.879Z,101177.94
2023-04-28T21:08:37.438Z,101173.09
2023-04-28T21:13:38.904Z,101170.72
2023-04-28T21:18:40.370Z,101176.59
2023-04-28T21:23:41.849Z,101183.66
2023-04-28T21:28:43.292Z,101175.09
2023-04-28T21:33:44.703Z,101175.09
2023-04-28T21:38:46.114Z,101171.66
2023-04-28T21:43:47.601Z,101159.75
2023-04-28T21:48:49.042Z,101151.41
2023-04-28T21:53:50.528Z,101151.38
2023-04-28T21:58:51.967Z,101143.59
2023-04-28T22:03:53.972Z,101141.19
2023-04-28T22:08:56.225Z,101139.53
2023-04-28T22:13:57.656Z,101148.09
2023-04-28T22:18:59.334Z,101161.78
2023-04-28T22:24:00.759Z,101165.22
2023-04-28T22:29:06.534Z,101165.28
2023-04-28T22:34:07.980Z,101162.78
2023-04-28T22:39:09.436Z,101157.78
2023-04-28T22:44:10.879Z,101167.06
2023-04-28T22:49:12.320Z,101162.81
2023-04-28T22:54:13.773Z,101161.38
2023-04-28T22:59:15.208Z,101171.66
2023-04-28T23:04:16.878Z,101168.41
2023-04-28T23:09:18.514Z,101163.28
2023-04-28T23:14:19.942Z,101167.59
2023-04-28T23:19:21.379Z,101169.44
2023-04-28T23:24:22.866Z,101170.31
2023-04-28T23:29:24.357Z,101176.47
2023-04-28T23:34:25.909Z,101187.78
2023-04-28T23:39:27.352Z,101198.25
2023-04-28T23:44:28.828Z,101191.53
2023-04-28T23:49:30.251Z,101200.84
2023-04-28T23:54:31.654Z,101203.47
2023-04-28T23:59:33.053Z,101206.19
